Terminal Aerodrome Forecast
Issued by NWS

Home | Current Version | Previous Version | Text Only | Print | Product List | Glossary On
Versions: 1 2 3 4 5 6 7 8 9 10 11 12 13 14
000
FTUS43 KBIS 290521
TAFJMS
TAF
KJMS 290521Z 2906/3006 27028G38KT P6SM BKN045
     FM291000 27025G35KT P6SM SCT050
     FM291500 29027G38KT P6SM SCT050
     FM300100 27010KT P6SM SCT050=

USA.gov is the U.S. government's official web portal to all federal, state and local government web resources and services.